sensor_id;sensor_type;location;lat;lon;timestamp;P1;durP1;ratioP1;P2;durP2;ratioP2
22904;SDS011;11619;50.140;8.518;2023-07-31T00:00:58;5.03;;;2.22;;
22904;SDS011;11619;50.140;8.518;2023-07-31T00:03:24;3.97;;;2.25;;
22904;SDS011;11619;50.140;8.518;2023-07-31T00:05:51;4.60;;;2.13;;
22904;SDS011;11619;50.140;8.518;2023-07-31T00:08:17;4.13;;;1.80;;
22904;SDS011;11619;50.140;8.518;2023-07-31T00:10:44;5.60;;;2.30;;
22904;SDS011;11619;50.140;8.518;2023-07-31T00:13:10;3.88;;;1.85;;
22904;SDS011;11619;50.140;8.518;2023-07-31T00:15:38;8.27;;;2.00;;
22904;SDS011;11619;50.140;8.518;2023-07-31T00:18:04;4.18;;;2.00;;
22904;SDS011;11619;50.140;8.518;2023-07-31T00:20:31;4.90;;;1.98;;
22904;SDS011;11619;50.140;8.518;2023-07-31T00:22:57;5.45;;;2.35;;
22904;SDS011;11619;50.140;8.518;2023-07-31T00:25:24;7.97;;;2.20;;
22904;SDS011;11619;50.140;8.518;2023-07-31T00:27:50;5.00;;;2.13;;
22904;SDS011;11619;50.140;8.518;2023-07-31T00:30:17;4.20;;;2.22;;
22904;SDS011;11619;50.140;8.518;2023-07-31T00:32:43;6.18;;;2.03;;
22904;SDS011;11619;50.140;8.518;2023-07-31T00:35:10;4.75;;;2.45;;
22904;SDS011;11619;50.140;8.518;2023-07-31T00:37:38;7.50;;;1.90;;
22904;SDS011;11619;50.140;8.518;2023-07-31T00:40:05;5.63;;;2.70;;
22904;SDS011;11619;50.140;8.518;2023-07-31T00:42:32;4.55;;;1.65;;
22904;SDS011;11619;50.140;8.518;2023-07-31T00:44:58;4.90;;;2.25;;
22904;SDS011;11619;50.140;8.518;2023-07-31T00:47:24;6.20;;;2.30;;
22904;SDS011;11619;50.140;8.518;2023-07-31T00:49:51;3.53;;;1.98;;
22904;SDS011;11619;50.140;8.518;2023-07-31T00:52:18;2.63;;;2.00;;
22904;SDS011;11619;50.140;8.518;2023-07-31T00:54:44;5.25;;;2.05;;
22904;SDS011;11619;50.140;8.518;2023-07-31T00:57:11;3.55;;;2.40;;
22904;SDS011;11619;50.140;8.518;2023-07-31T00:59:37;4.10;;;1.92;;
22904;SDS011;11619;50.140;8.518;2023-07-31T01:02:04;2.47;;;1.83;;
22904;SDS011;11619;50.140;8.518;2023-07-31T01:04:31;5.43;;;2.30;;
22904;SDS011;11619;50.140;8.518;2023-07-31T01:07:02;5.65;;;2.33;;
22904;SDS011;11619;50.140;8.518;2023-07-31T01:12:31;8.70;;;2.30;;
22904;SDS011;11619;50.140;8.518;2023-07-31T01:15:07;6.28;;;2.00;;
22904;SDS011;11619;50.140;8.518;2023-07-31T01:17:38;5.68;;;2.17;;
22904;SDS011;11619;50.140;8.518;2023-07-31T01:20:16;6.68;;;2.05;;
22904;SDS011;11619;50.140;8.518;2023-07-31T01:25:16;4.72;;;2.22;;
22904;SDS011;11619;50.140;8.518;2023-07-31T01:28:05;5.07;;;2.30;;
22904;SDS011;11619;50.140;8.518;2023-07-31T01:30:37;5.47;;;2.60;;
22904;SDS011;11619;50.140;8.518;2023-07-31T01:33:09;4.28;;;2.30;;
22904;SDS011;11619;50.140;8.518;2023-07-31T01:35:37;3.55;;;2.22;;
22904;SDS011;11619;50.140;8.518;2023-07-31T01:38:04;6.38;;;2.75;;
22904;SDS011;11619;50.140;8.518;2023-07-31T01:40:31;4.40;;;1.98;;
22904;SDS011;11619;50.140;8.518;2023-07-31T01:42:57;4.32;;;2.33;;
22904;SDS011;11619;50.140;8.518;2023-07-31T01:45:26;3.70;;;2.00;;
22904;SDS011;11619;50.140;8.518;2023-07-31T01:47:52;4.32;;;2.38;;
22904;SDS011;11619;50.140;8.518;2023-07-31T01:50:19;9.38;;;2.97;;
22904;SDS011;11619;50.140;8.518;2023-07-31T01:52:47;3.20;;;2.25;;
22904;SDS011;11619;50.140;8.518;2023-07-31T01:55:13;4.65;;;2.10;;
22904;SDS011;11619;50.140;8.518;2023-07-31T01:57:40;5.32;;;2.55;;
22904;SDS011;11619;50.140;8.518;2023-07-31T02:00:06;9.82;;;2.72;;
22904;SDS011;11619;50.140;8.518;2023-07-31T02:02:33;4.13;;;2.10;;
22904;SDS011;11619;50.140;8.518;2023-07-31T02:05:00;3.22;;;2.08;;
22904;SDS011;11619;50.140;8.518;2023-07-31T02:07:26;5.10;;;2.50;;
22904;SDS011;11619;50.140;8.518;2023-07-31T02:09:53;7.05;;;2.15;;
22904;SDS011;11619;50.140;8.518;2023-07-31T02:12:20;4.97;;;2.38;;
22904;SDS011;11619;50.140;8.518;2023-07-31T02:14:46;6.65;;;2.58;;
22904;SDS011;11619;50.140;8.518;2023-07-31T02:17:13;4.20;;;2.03;;
22904;SDS011;11619;50.140;8.518;2023-07-31T02:19:39;3.47;;;2.40;;
22904;SDS011;11619;50.140;8.518;2023-07-31T02:22:06;10.07;;;2.50;;
22904;SDS011;11619;50.140;8.518;2023-07-31T02:24:32;4.70;;;2.17;;
22904;SDS011;11619;50.140;8.518;2023-07-31T02:26:59;2.95;;;2.10;;
22904;SDS011;11619;50.140;8.518;2023-07-31T02:29:25;4.38;;;1.83;;
22904;SDS011;11619;50.140;8.518;2023-07-31T02:31:51;5.20;;;2.08;;
22904;SDS011;11619;50.140;8.518;2023-07-31T02:34:18;6.25;;;2.30;;
22904;SDS011;11619;50.140;8.518;2023-07-31T02:36:45;6.35;;;2.58;;
22904;SDS011;11619;50.140;8.518;2023-07-31T02:39:11;3.15;;;1.83;;
22904;SDS011;11619;50.140;8.518;2023-07-31T02:41:37;4.05;;;1.85;;
22904;SDS011;11619;50.140;8.518;2023-07-31T02:44:04;5.40;;;2.47;;
22904;SDS011;11619;50.140;8.518;2023-07-31T02:46:30;5.18;;;2.50;;
22904;SDS011;11619;50.140;8.518;2023-07-31T02:48:57;5.90;;;2.78;;
22904;SDS011;11619;50.140;8.518;2023-07-31T02:51:24;4.20;;;2.10;;
22904;SDS011;11619;50.140;8.518;2023-07-31T02:53:50;4.70;;;1.98;;
22904;SDS011;11619;50.140;8.518;2023-07-31T02:56:17;6.68;;;2.40;;
22904;SDS011;11619;50.140;8.518;2023-07-31T02:58:44;2.97;;;2.08;;
22904;SDS011;11619;50.140;8.518;2023-07-31T03:01:10;4.13;;;1.98;;
22904;SDS011;11619;50.140;8.518;2023-07-31T03:03:37;5.18;;;2.50;;
22904;SDS011;11619;50.140;8.518;2023-07-31T03:06:04;3.70;;;2.05;;
22904;SDS011;11619;50.140;8.518;2023-07-31T03:08:30;4.85;;;2.30;;
22904;SDS011;11619;50.140;8.518;2023-07-31T03:10:56;6.43;;;2.20;;
22904;SDS011;11619;50.140;8.518;2023-07-31T03:13:23;5.70;;;2.83;;
22904;SDS011;11619;50.140;8.518;2023-07-31T03:15:50;6.13;;;2.75;;
22904;SDS011;11619;50.140;8.518;2023-07-31T03:18:16;5.55;;;2.40;;
22904;SDS011;11619;50.140;8.518;2023-07-31T03:20:43;10.80;;;2.97;;
22904;SDS011;11619;50.140;8.518;2023-07-31T03:23:10;5.45;;;2.80;;
22904;SDS011;11619;50.140;8.518;2023-07-31T03:25:37;4.80;;;2.55;;
22904;SDS011;11619;50.140;8.518;2023-07-31T03:28:03;4.03;;;2.63;;
22904;SDS011;11619;50.140;8.518;2023-07-31T03:30:30;5.65;;;2.70;;
22904;SDS011;11619;50.140;8.518;2023-07-31T03:32:56;6.65;;;2.75;;
22904;SDS011;11619;50.140;8.518;2023-07-31T03:35:23;7.07;;;2.72;;
22904;SDS011;11619;50.140;8.518;2023-07-31T03:37:49;6.28;;;3.42;;
22904;SDS011;11619;50.140;8.518;2023-07-31T03:40:16;3.92;;;2.60;;
22904;SDS011;11619;50.140;8.518;2023-07-31T03:42:42;7.30;;;3.00;;
22904;SDS011;11619;50.140;8.518;2023-07-31T03:45:09;5.70;;;3.05;;
22904;SDS011;11619;50.140;8.518;2023-07-31T03:47:35;5.45;;;2.92;;
22904;SDS011;11619;50.140;8.518;2023-07-31T03:50:02;6.45;;;3.80;;
22904;SDS011;11619;50.140;8.518;2023-07-31T03:52:28;5.95;;;2.72;;
22904;SDS011;11619;50.140;8.518;2023-07-31T03:54:55;6.82;;;3.17;;
22904;SDS011;11619;50.140;8.518;2023-07-31T03:57:22;4.78;;;2.47;;
22904;SDS011;11619;50.140;8.518;2023-07-31T03:59:49;6.55;;;2.72;;
22904;SDS011;11619;50.140;8.518;2023-07-31T04:02:15;7.55;;;3.65;;
22904;SDS011;11619;50.140;8.518;2023-07-31T04:04:42;9.02;;;2.85;;
22904;SDS011;11619;50.140;8.518;2023-07-31T04:07:09;11.73;;;3.45;;
22904;SDS011;11619;50.140;8.518;2023-07-31T04:09:35;6.00;;;2.67;;
22904;SDS011;11619;50.140;8.518;2023-07-31T04:12:02;6.38;;;2.95;;
22904;SDS011;11619;50.140;8.518;2023-07-31T04:14:28;7.22;;;3.25;;
22904;SDS011;11619;50.140;8.518;2023-07-31T04:16:54;5.82;;;2.78;;
22904;SDS011;11619;50.140;8.518;2023-07-31T04:19:21;5.40;;;2.88;;
22904;SDS011;11619;50.140;8.518;2023-07-31T04:21:47;3.92;;;2.92;;
22904;SDS011;11619;50.140;8.518;2023-07-31T04:24:14;5.45;;;2.88;;
22904;SDS011;11619;50.140;8.518;2023-07-31T04:26:40;6.50;;;2.88;;
22904;SDS011;11619;50.140;8.518;2023-07-31T04:29:07;6.43;;;2.80;;
22904;SDS011;11619;50.140;8.518;2023-07-31T04:31:34;6.45;;;2.75;;
22904;SDS011;11619;50.140;8.518;2023-07-31T04:34:04;5.90;;;2.95;;
22904;SDS011;11619;50.140;8.518;2023-07-31T04:36:31;5.28;;;2.97;;
22904;SDS011;11619;50.140;8.518;2023-07-31T04:38:57;7.18;;;3.05;;
22904;SDS011;11619;50.140;8.518;2023-07-31T04:41:23;6.72;;;3.72;;
22904;SDS011;11619;50.140;8.518;2023-07-31T04:43:50;4.30;;;2.65;;
22904;SDS011;11619;50.140;8.518;2023-07-31T04:46:17;6.95;;;3.05;;
22904;SDS011;11619;50.140;8.518;2023-07-31T04:48:43;7.38;;;3.00;;
22904;SDS011;11619;50.140;8.518;2023-07-31T04:51:10;4.78;;;2.72;;
22904;SDS011;11619;50.140;8.518;2023-07-31T04:53:36;6.70;;;3.30;;
22904;SDS011;11619;50.140;8.518;2023-07-31T04:56:02;4.97;;;2.75;;
22904;SDS011;11619;50.140;8.518;2023-07-31T04:58:29;7.43;;;3.40;;
22904;SDS011;11619;50.140;8.518;2023-07-31T05:00:55;5.70;;;2.50;;
22904;SDS011;11619;50.140;8.518;2023-07-31T05:03:22;6.18;;;3.50;;
22904;SDS011;11619;50.140;8.518;2023-07-31T05:05:49;7.80;;;3.10;;
22904;SDS011;11619;50.140;8.518;2023-07-31T05:08:16;7.28;;;3.47;;
22904;SDS011;11619;50.140;8.518;2023-07-31T05:10:43;6.38;;;2.90;;
22904;SDS011;11619;50.140;8.518;2023-07-31T05:13:10;9.40;;;3.40;;
22904;SDS011;11619;50.140;8.518;2023-07-31T05:15:36;6.72;;;3.17;;
22904;SDS011;11619;50.140;8.518;2023-07-31T05:18:03;8.70;;;3.63;;
22904;SDS011;11619;50.140;8.518;2023-07-31T05:20:29;6.13;;;3.72;;
22904;SDS011;11619;50.140;8.518;2023-07-31T05:22:55;6.78;;;3.05;;
22904;SDS011;11619;50.140;8.518;2023-07-31T05:25:22;4.63;;;2.80;;
22904;SDS011;11619;50.140;8.518;2023-07-31T05:27:48;7.00;;;3.33;;
22904;SDS011;11619;50.140;8.518;2023-07-31T05:30:15;7.18;;;3.00;;
22904;SDS011;11619;50.140;8.518;2023-07-31T05:32:41;7.82;;;3.22;;
22904;SDS011;11619;50.140;8.518;2023-07-31T05:35:08;7.70;;;3.45;;
22904;SDS011;11619;50.140;8.518;2023-07-31T05:37:35;5.40;;;3.17;;
22904;SDS011;11619;50.140;8.518;2023-07-31T05:40:01;4.47;;;2.75;;
22904;SDS011;11619;50.140;8.518;2023-07-31T05:42:28;10.70;;;3.35;;
22904;SDS011;11619;50.140;8.518;2023-07-31T05:44:54;7.20;;;2.83;;
22904;SDS011;11619;50.140;8.518;2023-07-31T05:47:20;6.53;;;3.30;;
22904;SDS011;11619;50.140;8.518;2023-07-31T05:49:48;7.03;;;2.95;;
22904;SDS011;11619;50.140;8.518;2023-07-31T05:52:15;11.52;;;3.55;;
22904;SDS011;11619;50.140;8.518;2023-07-31T05:54:42;7.47;;;3.10;;
22904;SDS011;11619;50.140;8.518;2023-07-31T05:57:08;8.35;;;2.92;;
22904;SDS011;11619;50.140;8.518;2023-07-31T05:59:34;5.82;;;3.08;;
22904;SDS011;11619;50.140;8.518;2023-07-31T06:02:01;9.40;;;3.65;;
22904;SDS011;11619;50.140;8.518;2023-07-31T06:04:28;4.65;;;2.90;;
22904;SDS011;11619;50.140;8.518;2023-07-31T06:06:54;5.18;;;3.05;;
22904;SDS011;11619;50.140;8.518;2023-07-31T06:09:21;9.25;;;3.53;;
22904;SDS011;11619;50.140;8.518;2023-07-31T06:11:48;6.07;;;3.25;;
22904;SDS011;11619;50.140;8.518;2023-07-31T06:14:14;15.77;;;2.90;;
22904;SDS011;11619;50.140;8.518;2023-07-31T06:16:41;6.15;;;2.67;;
22904;SDS011;11619;50.140;8.518;2023-07-31T06:19:07;8.13;;;3.35;;
22904;SDS011;11619;50.140;8.518;2023-07-31T06:21:34;8.23;;;3.17;;
22904;SDS011;11619;50.140;8.518;2023-07-31T06:24:03;8.45;;;3.13;;
22904;SDS011;11619;50.140;8.518;2023-07-31T06:26:31;5.53;;;2.92;;
22904;SDS011;11619;50.140;8.518;2023-07-31T06:28:58;9.48;;;3.85;;
22904;SDS011;11619;50.140;8.518;2023-07-31T06:31:24;8.00;;;3.15;;
22904;SDS011;11619;50.140;8.518;2023-07-31T06:33:51;5.60;;;3.47;;
22904;SDS011;11619;50.140;8.518;2023-07-31T06:36:18;6.15;;;3.55;;
22904;SDS011;11619;50.140;8.518;2023-07-31T06:38:45;6.63;;;3.60;;
22904;SDS011;11619;50.140;8.518;2023-07-31T06:41:11;5.88;;;3.15;;
22904;SDS011;11619;50.140;8.518;2023-07-31T06:43:38;10.30;;;3.53;;
22904;SDS011;11619;50.140;8.518;2023-07-31T06:46:05;8.73;;;3.78;;
22904;SDS011;11619;50.140;8.518;2023-07-31T06:48:33;6.25;;;3.30;;
22904;SDS011;11619;50.140;8.518;2023-07-31T06:51:00;7.95;;;3.30;;
22904;SDS011;11619;50.140;8.518;2023-07-31T06:53:27;7.50;;;3.08;;
22904;SDS011;11619;50.140;8.518;2023-07-31T06:55:54;6.00;;;3.30;;
22904;SDS011;11619;50.140;8.518;2023-07-31T06:58:21;7.50;;;3.55;;
22904;SDS011;11619;50.140;8.518;2023-07-31T07:00:47;6.15;;;3.33;;
22904;SDS011;11619;50.140;8.518;2023-07-31T07:03:17;5.97;;;2.83;;
22904;SDS011;11619;50.140;8.518;2023-07-31T07:05:44;7.28;;;3.33;;
22904;SDS011;11619;50.140;8.518;2023-07-31T07:08:11;7.82;;;3.67;;
22904;SDS011;11619;50.140;8.518;2023-07-31T07:10:37;9.77;;;3.08;;
22904;SDS011;11619;50.140;8.518;2023-07-31T07:13:04;7.95;;;3.20;;
22904;SDS011;11619;50.140;8.518;2023-07-31T07:15:30;5.28;;;3.33;;
22904;SDS011;11619;50.140;8.518;2023-07-31T07:17:57;5.18;;;3.25;;
22904;SDS011;11619;50.140;8.518;2023-07-31T07:20:23;5.55;;;2.95;;
22904;SDS011;11619;50.140;8.518;2023-07-31T07:22:50;11.95;;;3.20;;
22904;SDS011;11619;50.140;8.518;2023-07-31T07:25:17;6.43;;;2.95;;
22904;SDS011;11619;50.140;8.518;2023-07-31T07:27:43;6.63;;;3.30;;
22904;SDS011;11619;50.140;8.518;2023-07-31T07:30:10;5.00;;;2.70;;
22904;SDS011;11619;50.140;8.518;2023-07-31T07:32:36;6.75;;;2.90;;
22904;SDS011;11619;50.140;8.518;2023-07-31T07:35:03;6.18;;;3.00;;
22904;SDS011;11619;50.140;8.518;2023-07-31T07:37:29;5.82;;;2.85;;
22904;SDS011;11619;50.140;8.518;2023-07-31T07:39:58;6.18;;;3.13;;
22904;SDS011;11619;50.140;8.518;2023-07-31T07:42:25;7.07;;;2.90;;
22904;SDS011;11619;50.140;8.518;2023-07-31T07:44:52;5.10;;;3.05;;
22904;SDS011;11619;50.140;8.518;2023-07-31T07:47:18;6.43;;;3.00;;
22904;SDS011;11619;50.140;8.518;2023-07-31T07:49:45;7.85;;;3.40;;
22904;SDS011;11619;50.140;8.518;2023-07-31T07:52:18;3.85;;;2.55;;
22904;SDS011;11619;50.140;8.518;2023-07-31T07:54:44;6.25;;;3.60;;
22904;SDS011;11619;50.140;8.518;2023-07-31T07:57:11;7.18;;;3.08;;
22904;SDS011;11619;50.140;8.518;2023-07-31T07:59:37;7.15;;;3.30;;
22904;SDS011;11619;50.140;8.518;2023-07-31T08:02:04;5.72;;;3.20;;
22904;SDS011;11619;50.140;8.518;2023-07-31T08:04:30;5.53;;;3.10;;
22904;SDS011;11619;50.140;8.518;2023-07-31T08:06:56;8.50;;;3.60;;
22904;SDS011;11619;50.140;8.518;2023-07-31T08:09:23;5.85;;;3.40;;
22904;SDS011;11619;50.140;8.518;2023-07-31T08:11:49;6.65;;;3.35;;
22904;SDS011;11619;50.140;8.518;2023-07-31T08:14:16;4.43;;;3.25;;
22904;SDS011;11619;50.140;8.518;2023-07-31T08:16:42;7.05;;;3.08;;
22904;SDS011;11619;50.140;8.518;2023-07-31T08:19:09;7.47;;;3.88;;
22904;SDS011;11619;50.140;8.518;2023-07-31T08:21:36;6.05;;;3.10;;
22904;SDS011;11619;50.140;8.518;2023-07-31T08:24:02;6.78;;;3.63;;
22904;SDS011;11619;50.140;8.518;2023-07-31T08:26:28;8.80;;;3.33;;
22904;SDS011;11619;50.140;8.518;2023-07-31T08:28:55;7.75;;;3.58;;
22904;SDS011;11619;50.140;8.518;2023-07-31T08:31:21;5.72;;;3.20;;
22904;SDS011;11619;50.140;8.518;2023-07-31T08:33:48;7.32;;;3.65;;
22904;SDS011;11619;50.140;8.518;2023-07-31T08:36:15;8.07;;;3.42;;
22904;SDS011;11619;50.140;8.518;2023-07-31T08:38:41;4.90;;;2.83;;
22904;SDS011;11619;50.140;8.518;2023-07-31T08:41:07;3.33;;;2.92;;
22904;SDS011;11619;50.140;8.518;2023-07-31T08:43:34;6.15;;;3.13;;
22904;SDS011;11619;50.140;8.518;2023-07-31T08:46:01;5.65;;;3.10;;
22904;SDS011;11619;50.140;8.518;2023-07-31T08:48:28;8.02;;;3.22;;
22904;SDS011;11619;50.140;8.518;2023-07-31T08:50:55;6.57;;;3.22;;
22904;SDS011;11619;50.140;8.518;2023-07-31T08:53:22;5.53;;;3.40;;
22904;SDS011;11619;50.140;8.518;2023-07-31T08:55:48;5.50;;;3.28;;
22904;SDS011;11619;50.140;8.518;2023-07-31T08:58:15;6.45;;;3.35;;
22904;SDS011;11619;50.140;8.518;2023-07-31T09:00:43;6.15;;;3.13;;
22904;SDS011;11619;50.140;8.518;2023-07-31T09:03:15;6.75;;;3.35;;
22904;SDS011;11619;50.140;8.518;2023-07-31T09:05:46;4.38;;;3.08;;
22904;SDS011;11619;50.140;8.518;2023-07-31T09:08:14;5.50;;;3.33;;
22904;SDS011;11619;50.140;8.518;2023-07-31T09:10:42;7.57;;;3.45;;
22904;SDS011;11619;50.140;8.518;2023-07-31T09:13:09;5.45;;;3.47;;
22904;SDS011;11619;50.140;8.518;2023-07-31T09:15:38;5.25;;;2.80;;
22904;SDS011;11619;50.140;8.518;2023-07-31T09:18:06;7.65;;;3.38;;
22904;SDS011;11619;50.140;8.518;2023-07-31T09:20:33;8.32;;;2.90;;
22904;SDS011;11619;50.140;8.518;2023-07-31T09:23:07;4.13;;;3.03;;
22904;SDS011;11619;50.140;8.518;2023-07-31T09:25:35;7.30;;;3.20;;
22904;SDS011;11619;50.140;8.518;2023-07-31T09:28:08;10.13;;;3.38;;
22904;SDS011;11619;50.140;8.518;2023-07-31T09:30:48;6.85;;;2.63;;
22904;SDS011;11619;50.140;8.518;2023-07-31T09:33:18;9.15;;;3.42;;
22904;SDS011;11619;50.140;8.518;2023-07-31T09:35:51;6.28;;;3.30;;
22904;SDS011;11619;50.140;8.518;2023-07-31T09:38:18;4.75;;;2.97;;
22904;SDS011;11619;50.140;8.518;2023-07-31T09:40:45;4.97;;;3.03;;
22904;SDS011;11619;50.140;8.518;2023-07-31T09:43:13;6.55;;;3.50;;
22904;SDS011;11619;50.140;8.518;2023-07-31T09:45:44;4.95;;;3.22;;
22904;SDS011;11619;50.140;8.518;2023-07-31T09:48:14;5.43;;;2.95;;
22904;SDS011;11619;50.140;8.518;2023-07-31T09:50:46;5.82;;;3.08;;
22904;SDS011;11619;50.140;8.518;2023-07-31T09:53:13;7.13;;;3.15;;
22904;SDS011;11619;50.140;8.518;2023-07-31T09:55:40;7.93;;;3.65;;
22904;SDS011;11619;50.140;8.518;2023-07-31T09:58:08;5.18;;;3.30;;
22904;SDS011;11619;50.140;8.518;2023-07-31T10:00:35;6.38;;;2.88;;
22904;SDS011;11619;50.140;8.518;2023-07-31T10:03:04;5.35;;;3.20;;
22904;SDS011;11619;50.140;8.518;2023-07-31T10:05:35;4.32;;;3.03;;
22904;SDS011;11619;50.140;8.518;2023-07-31T10:08:03;8.43;;;3.83;;
22904;SDS011;11619;50.140;8.518;2023-07-31T10:10:29;5.25;;;2.70;;
22904;SDS011;11619;50.140;8.518;2023-07-31T10:12:56;6.20;;;3.08;;
22904;SDS011;11619;50.140;8.518;2023-07-31T10:15:24;4.75;;;3.40;;
22904;SDS011;11619;50.140;8.518;2023-07-31T10:17:53;4.68;;;3.10;;
22904;SDS011;11619;50.140;8.518;2023-07-31T10:20:21;6.93;;;3.22;;
22904;SDS011;11619;50.140;8.518;2023-07-31T10:22:47;5.60;;;2.80;;
22904;SDS011;11619;50.140;8.518;2023-07-31T10:25:17;5.15;;;3.42;;
22904;SDS011;11619;50.140;8.518;2023-07-31T10:27:44;7.30;;;3.70;;
22904;SDS011;11619;50.140;8.518;2023-07-31T10:30:12;12.02;;;3.13;;
22904;SDS011;11619;50.140;8.518;2023-07-31T10:32:45;4.75;;;2.83;;
22904;SDS011;11619;50.140;8.518;2023-07-31T10:35:11;5.97;;;3.25;;
22904;SDS011;11619;50.140;8.518;2023-07-31T10:37:39;5.43;;;3.13;;
22904;SDS011;11619;50.140;8.518;2023-07-31T10:40:09;3.92;;;2.67;;
22904;SDS011;11619;50.140;8.518;2023-07-31T10:42:37;7.38;;;3.63;;
22904;SDS011;11619;50.140;8.518;2023-07-31T10:48:15;4.55;;;3.17;;
22904;SDS011;11619;50.140;8.518;2023-07-31T10:50:51;5.25;;;3.33;;
22904;SDS011;11619;50.140;8.518;2023-07-31T10:53:30;8.70;;;3.42;;
22904;SDS011;11619;50.140;8.518;2023-07-31T10:56:01;7.82;;;3.38;;
22904;SDS011;11619;50.140;8.518;2023-07-31T10:58:31;5.13;;;3.00;;
22904;SDS011;11619;50.140;8.518;2023-07-31T11:00:59;5.90;;;3.13;;
22904;SDS011;11619;50.140;8.518;2023-07-31T11:03:42;10.20;;;3.75;;
22904;SDS011;11619;50.140;8.518;2023-07-31T11:06:13;7.97;;;3.17;;
22904;SDS011;11619;50.140;8.518;2023-07-31T11:08:47;7.78;;;3.42;;
22904;SDS011;11619;50.140;8.518;2023-07-31T11:11:15;6.70;;;3.70;;
22904;SDS011;11619;50.140;8.518;2023-07-31T11:16:12;8.27;;;3.20;;
22904;SDS011;11619;50.140;8.518;2023-07-31T11:18:40;4.95;;;3.10;;
22904;SDS011;11619;50.140;8.518;2023-07-31T11:21:08;4.55;;;3.22;;
22904;SDS011;11619;50.140;8.518;2023-07-31T11:23:41;6.80;;;3.45;;
22904;SDS011;11619;50.140;8.518;2023-07-31T11:26:07;6.40;;;3.03;;
22904;SDS011;11619;50.140;8.518;2023-07-31T11:28:34;4.90;;;2.90;;
22904;SDS011;11619;50.140;8.518;2023-07-31T11:31:01;6.38;;;3.28;;
22904;SDS011;11619;50.140;8.518;2023-07-31T11:33:28;5.78;;;3.25;;
22904;SDS011;11619;50.140;8.518;2023-07-31T11:35:55;7.05;;;3.60;;
22904;SDS011;11619;50.140;8.518;2023-07-31T11:38:23;6.15;;;3.08;;
22904;SDS011;11619;50.140;8.518;2023-07-31T11:40:54;7.43;;;3.85;;
22904;SDS011;11619;50.140;8.518;2023-07-31T11:43:22;6.32;;;3.25;;
22904;SDS011;11619;50.140;8.518;2023-07-31T11:45:56;8.82;;;3.78;;
22904;SDS011;11619;50.140;8.518;2023-07-31T11:48:30;5.75;;;3.47;;
22904;SDS011;11619;50.140;8.518;2023-07-31T11:51:03;4.82;;;2.78;;
22904;SDS011;11619;50.140;8.518;2023-07-31T11:53:41;5.13;;;3.00;;
22904;SDS011;11619;50.140;8.518;2023-07-31T11:56:10;5.22;;;2.80;;
22904;SDS011;11619;50.140;8.518;2023-07-31T11:58:39;3.95;;;2.55;;
22904;SDS011;11619;50.140;8.518;2023-07-31T12:01:06;4.95;;;3.35;;
22904;SDS011;11619;50.140;8.518;2023-07-31T12:03:32;6.65;;;3.08;;
22904;SDS011;11619;50.140;8.518;2023-07-31T12:06:00;5.97;;;3.10;;
22904;SDS011;11619;50.140;8.518;2023-07-31T12:08:26;5.53;;;3.72;;
22904;SDS011;11619;50.140;8.518;2023-07-31T12:10:53;4.22;;;3.13;;
22904;SDS011;11619;50.140;8.518;2023-07-31T12:13:20;7.78;;;3.28;;
22904;SDS011;11619;50.140;8.518;2023-07-31T12:15:48;5.93;;;3.58;;
22904;SDS011;11619;50.140;8.518;2023-07-31T12:18:18;4.95;;;3.08;;
22904;SDS011;11619;50.140;8.518;2023-07-31T12:20:46;5.53;;;3.08;;
22904;SDS011;11619;50.140;8.518;2023-07-31T12:23:17;5.15;;;3.05;;
22904;SDS011;11619;50.140;8.518;2023-07-31T12:28:40;8.45;;;3.45;;
22904;SDS011;11619;50.140;8.518;2023-07-31T12:31:14;6.00;;;3.42;;
22904;SDS011;11619;50.140;8.518;2023-07-31T12:33:43;5.43;;;3.47;;
22904;SDS011;11619;50.140;8.518;2023-07-31T12:36:11;4.57;;;3.17;;
22904;SDS011;11619;50.140;8.518;2023-07-31T12:38:38;5.20;;;3.30;;
22904;SDS011;11619;50.140;8.518;2023-07-31T12:41:05;5.30;;;3.42;;
22904;SDS011;11619;50.140;8.518;2023-07-31T12:43:35;3.90;;;2.88;;
22904;SDS011;11619;50.140;8.518;2023-07-31T12:46:02;4.13;;;3.42;;
22904;SDS011;11619;50.140;8.518;2023-07-31T12:48:29;5.25;;;2.83;;
22904;SDS011;11619;50.140;8.518;2023-07-31T12:50:57;5.82;;;3.30;;
22904;SDS011;11619;50.140;8.518;2023-07-31T12:53:23;6.53;;;3.38;;
22904;SDS011;11619;50.140;8.518;2023-07-31T12:55:50;6.35;;;3.28;;
22904;SDS011;11619;50.140;8.518;2023-07-31T12:58:16;7.15;;;3.05;;
22904;SDS011;11619;50.140;8.518;2023-07-31T13:00:43;4.18;;;3.20;;
22904;SDS011;11619;50.140;8.518;2023-07-31T13:03:09;3.92;;;3.13;;
22904;SDS011;11619;50.140;8.518;2023-07-31T13:05:37;7.22;;;3.13;;
22904;SDS011;11619;50.140;8.518;2023-07-31T13:08:03;5.70;;;3.28;;
22904;SDS011;11619;50.140;8.518;2023-07-31T13:10:30;5.25;;;3.47;;
22904;SDS011;11619;50.140;8.518;2023-07-31T13:12:56;4.47;;;3.00;;
22904;SDS011;11619;50.140;8.518;2023-07-31T13:15:23;3.72;;;3.22;;
22904;SDS011;11619;50.140;8.518;2023-07-31T13:17:49;3.78;;;2.92;;
22904;SDS011;11619;50.140;8.518;2023-07-31T13:20:16;5.53;;;2.88;;
22904;SDS011;11619;50.140;8.518;2023-07-31T13:22:42;5.43;;;2.90;;
22904;SDS011;11619;50.140;8.518;2023-07-31T13:25:12;3.80;;;2.88;;
22904;SDS011;11619;50.140;8.518;2023-07-31T13:27:38;4.47;;;2.63;;
22904;SDS011;11619;50.140;8.518;2023-07-31T13:30:05;8.18;;;3.03;;
22904;SDS011;11619;50.140;8.518;2023-07-31T13:32:32;4.47;;;3.17;;
22904;SDS011;11619;50.140;8.518;2023-07-31T13:34:59;4.85;;;3.25;;
22904;SDS011;11619;50.140;8.518;2023-07-31T13:37:25;3.72;;;2.67;;
22904;SDS011;11619;50.140;8.518;2023-07-31T13:39:51;3.70;;;2.78;;
22904;SDS011;11619;50.140;8.518;2023-07-31T13:42:18;5.78;;;2.88;;
22904;SDS011;11619;50.140;8.518;2023-07-31T13:44:45;5.95;;;2.95;;
22904;SDS011;11619;50.140;8.518;2023-07-31T13:47:11;4.32;;;2.65;;
22904;SDS011;11619;50.140;8.518;2023-07-31T13:49:38;6.78;;;2.88;;
22904;SDS011;11619;50.140;8.518;2023-07-31T13:52:05;6.13;;;3.00;;
22904;SDS011;11619;50.140;8.518;2023-07-31T13:54:31;4.70;;;2.85;;
22904;SDS011;11619;50.140;8.518;2023-07-31T13:56:58;4.25;;;2.63;;
22904;SDS011;11619;50.140;8.518;2023-07-31T13:59:24;6.53;;;3.13;;
22904;SDS011;11619;50.140;8.518;2023-07-31T14:01:51;5.90;;;2.60;;
22904;SDS011;11619;50.140;8.518;2023-07-31T14:04:17;5.28;;;2.88;;
22904;SDS011;11619;50.140;8.518;2023-07-31T14:06:44;5.60;;;2.50;;
22904;SDS011;11619;50.140;8.518;2023-07-31T14:09:10;5.38;;;2.72;;
22904;SDS011;11619;50.140;8.518;2023-07-31T14:11:37;6.57;;;2.80;;
22904;SDS011;11619;50.140;8.518;2023-07-31T14:14:08;4.45;;;2.72;;
22904;SDS011;11619;50.140;8.518;2023-07-31T14:16:35;4.38;;;3.00;;
22904;SDS011;11619;50.140;8.518;2023-07-31T14:19:01;4.13;;;2.65;;
22904;SDS011;11619;50.140;8.518;2023-07-31T14:21:28;4.13;;;2.63;;
22904;SDS011;11619;50.140;8.518;2023-07-31T14:23:54;3.33;;;2.30;;
22904;SDS011;11619;50.140;8.518;2023-07-31T14:26:22;3.50;;;2.47;;
22904;SDS011;11619;50.140;8.518;2023-07-31T14:28:48;4.00;;;2.80;;
22904;SDS011;11619;50.140;8.518;2023-07-31T14:31:15;4.10;;;2.78;;
22904;SDS011;11619;50.140;8.518;2023-07-31T14:33:41;6.18;;;3.13;;
22904;SDS011;11619;50.140;8.518;2023-07-31T14:36:08;6.47;;;2.75;;
22904;SDS011;11619;50.140;8.518;2023-07-31T14:38:34;4.30;;;2.72;;
22904;SDS011;11619;50.140;8.518;2023-07-31T14:41:01;4.38;;;2.60;;
22904;SDS011;11619;50.140;8.518;2023-07-31T14:43:27;5.30;;;3.22;;
22904;SDS011;11619;50.140;8.518;2023-07-31T14:45:54;4.82;;;2.90;;
22904;SDS011;11619;50.140;8.518;2023-07-31T14:48:24;8.63;;;3.30;;
22904;SDS011;11619;50.140;8.518;2023-07-31T14:50:50;5.70;;;2.95;;
22904;SDS011;11619;50.140;8.518;2023-07-31T14:53:16;5.50;;;2.95;;
22904;SDS011;11619;50.140;8.518;2023-07-31T14:55:43;5.80;;;3.25;;
22904;SDS011;11619;50.140;8.518;2023-07-31T14:58:09;6.97;;;3.38;;
22904;SDS011;11619;50.140;8.518;2023-07-31T15:00:38;9.02;;;3.70;;
22904;SDS011;11619;50.140;8.518;2023-07-31T15:03:05;6.45;;;3.50;;